sensor_id;sensor_type;location;lat;lon;timestamp;P1;durP1;ratioP1;P2;durP2;ratioP2
15876;SDS011;8037;51.666;7.834;2023-02-15T00:01:14;7.73;;;6.07;;
15876;SDS011;8037;51.666;7.834;2023-02-15T00:03:40;9.13;;;7.00;;
15876;SDS011;8037;51.666;7.834;2023-02-15T00:06:06;11.37;;;6.50;;
15876;SDS011;8037;51.666;7.834;2023-02-15T00:08:32;8.57;;;6.50;;
15876;SDS011;8037;51.666;7.834;2023-02-15T00:11:04;16.43;;;7.13;;
15876;SDS011;8037;51.666;7.834;2023-02-15T00:13:30;26.47;;;12.20;;
15876;SDS011;8037;51.666;7.834;2023-02-15T00:16:02;15.43;;;12.27;;
15876;SDS011;8037;51.666;7.834;2023-02-15T00:18:29;18.47;;;8.83;;
15876;SDS011;8037;51.666;7.834;2023-02-15T00:20:56;12.40;;;8.17;;
15876;SDS011;8037;51.666;7.834;2023-02-15T00:23:22;20.93;;;8.03;;
15876;SDS011;8037;51.666;7.834;2023-02-15T00:25:48;9.43;;;7.10;;
15876;SDS011;8037;51.666;7.834;2023-02-15T00:28:15;9.53;;;6.60;;
15876;SDS011;8037;51.666;7.834;2023-02-15T00:30:41;9.37;;;7.03;;
15876;SDS011;8037;51.666;7.834;2023-02-15T00:33:07;6.80;;;5.47;;
15876;SDS011;8037;51.666;7.834;2023-02-15T00:35:33;7.40;;;6.03;;
15876;SDS011;8037;51.666;7.834;2023-02-15T00:37:59;6.87;;;5.80;;
15876;SDS011;8037;51.666;7.834;2023-02-15T00:40:24;6.73;;;6.13;;
15876;SDS011;8037;51.666;7.834;2023-02-15T00:42:50;9.20;;;5.83;;
15876;SDS011;8037;51.666;7.834;2023-02-15T00:45:16;6.93;;;5.17;;
15876;SDS011;8037;51.666;7.834;2023-02-15T00:47:42;8.20;;;4.90;;
15876;SDS011;8037;51.666;7.834;2023-02-15T00:50:08;5.87;;;5.33;;
15876;SDS011;8037;51.666;7.834;2023-02-15T00:52:34;9.27;;;6.87;;
15876;SDS011;8037;51.666;7.834;2023-02-15T00:55:00;4.67;;;4.27;;
15876;SDS011;8037;51.666;7.834;2023-02-15T00:57:26;7.90;;;6.43;;
15876;SDS011;8037;51.666;7.834;2023-02-15T00:59:52;7.00;;;5.63;;
15876;SDS011;8037;51.666;7.834;2023-02-15T01:02:18;8.87;;;5.40;;
15876;SDS011;8037;51.666;7.834;2023-02-15T01:04:44;9.93;;;7.17;;
15876;SDS011;8037;51.666;7.834;2023-02-15T01:07:10;14.90;;;6.70;;
15876;SDS011;8037;51.666;7.834;2023-02-15T01:09:36;6.77;;;5.43;;
15876;SDS011;8037;51.666;7.834;2023-02-15T01:12:02;10.00;;;6.17;;
15876;SDS011;8037;51.666;7.834;2023-02-15T01:14:28;5.13;;;4.20;;
15876;SDS011;8037;51.666;7.834;2023-02-15T01:16:54;11.33;;;5.40;;
15876;SDS011;8037;51.666;7.834;2023-02-15T01:19:19;5.77;;;4.90;;
15876;SDS011;8037;51.666;7.834;2023-02-15T01:21:45;5.50;;;4.73;;
15876;SDS011;8037;51.666;7.834;2023-02-15T01:24:12;6.03;;;4.20;;
15876;SDS011;8037;51.666;7.834;2023-02-15T01:26:38;8.90;;;5.47;;
15876;SDS011;8037;51.666;7.834;2023-02-15T01:29:04;7.70;;;5.70;;
15876;SDS011;8037;51.666;7.834;2023-02-15T01:31:30;10.10;;;4.87;;
15876;SDS011;8037;51.666;7.834;2023-02-15T01:33:56;8.10;;;4.77;;
15876;SDS011;8037;51.666;7.834;2023-02-15T01:36:22;9.30;;;5.13;;
15876;SDS011;8037;51.666;7.834;2023-02-15T01:38:48;4.97;;;4.40;;
15876;SDS011;8037;51.666;7.834;2023-02-15T01:41:14;7.20;;;4.80;;
15876;SDS011;8037;51.666;7.834;2023-02-15T01:44:00;5.47;;;4.90;;
15876;SDS011;8037;51.666;7.834;2023-02-15T01:49:02;5.40;;;4.53;;
15876;SDS011;8037;51.666;7.834;2023-02-15T01:51:30;7.20;;;5.03;;
15876;SDS011;8037;51.666;7.834;2023-02-15T01:53:58;5.80;;;5.07;;
15876;SDS011;8037;51.666;7.834;2023-02-15T01:56:27;9.53;;;4.47;;
15876;SDS011;8037;51.666;7.834;2023-02-15T01:58:55;7.27;;;3.93;;
15876;SDS011;8037;51.666;7.834;2023-02-15T02:01:23;5.20;;;4.00;;
15876;SDS011;8037;51.666;7.834;2023-02-15T02:06:21;4.33;;;3.93;;
15876;SDS011;8037;51.666;7.834;2023-02-15T02:08:47;5.10;;;4.60;;
15876;SDS011;8037;51.666;7.834;2023-02-15T02:11:13;5.30;;;4.10;;
15876;SDS011;8037;51.666;7.834;2023-02-15T02:13:40;5.80;;;4.83;;
15876;SDS011;8037;51.666;7.834;2023-02-15T02:16:15;5.33;;;4.17;;
15876;SDS011;8037;51.666;7.834;2023-02-15T02:21:29;5.27;;;4.27;;
15876;SDS011;8037;51.666;7.834;2023-02-15T02:24:03;6.20;;;4.00;;
15876;SDS011;8037;51.666;7.834;2023-02-15T02:29:41;3.40;;;3.10;;
15876;SDS011;8037;51.666;7.834;2023-02-15T02:35:15;6.40;;;3.87;;
15876;SDS011;8037;51.666;7.834;2023-02-15T02:37:46;3.57;;;3.27;;
15876;SDS011;8037;51.666;7.834;2023-02-15T02:42:49;3.73;;;3.43;;
15876;SDS011;8037;51.666;7.834;2023-02-15T02:45:35;3.63;;;3.00;;
15876;SDS011;8037;51.666;7.834;2023-02-15T02:48:07;3.70;;;3.20;;
15876;SDS011;8037;51.666;7.834;2023-02-15T02:50:38;3.83;;;3.53;;
15876;SDS011;8037;51.666;7.834;2023-02-15T02:53:05;4.30;;;3.10;;
15876;SDS011;8037;51.666;7.834;2023-02-15T02:55:35;2.83;;;2.63;;
15876;SDS011;8037;51.666;7.834;2023-02-15T02:58:08;8.00;;;3.90;;
15876;SDS011;8037;51.666;7.834;2023-02-15T03:00:36;2.50;;;2.37;;
15876;SDS011;8037;51.666;7.834;2023-02-15T03:03:17;3.10;;;2.90;;
15876;SDS011;8037;51.666;7.834;2023-02-15T03:05:46;3.70;;;3.40;;
15876;SDS011;8037;51.666;7.834;2023-02-15T03:08:14;6.57;;;5.23;;
15876;SDS011;8037;51.666;7.834;2023-02-15T03:10:46;5.70;;;3.00;;
15876;SDS011;8037;51.666;7.834;2023-02-15T03:13:12;2.13;;;2.00;;
15876;SDS011;8037;51.666;7.834;2023-02-15T03:15:39;3.80;;;2.60;;
15876;SDS011;8037;51.666;7.834;2023-02-15T03:18:26;2.10;;;2.00;;
15876;SDS011;8037;51.666;7.834;2023-02-15T03:20:53;10.60;;;2.70;;
15876;SDS011;8037;51.666;7.834;2023-02-15T03:23:24;6.07;;;3.40;;
15876;SDS011;8037;51.666;7.834;2023-02-15T03:25:56;3.03;;;2.73;;
15876;SDS011;8037;51.666;7.834;2023-02-15T03:28:29;2.70;;;2.50;;
15876;SDS011;8037;51.666;7.834;2023-02-15T03:30:58;2.37;;;2.27;;
15876;SDS011;8037;51.666;7.834;2023-02-15T03:33:26;3.13;;;2.93;;
15876;SDS011;8037;51.666;7.834;2023-02-15T03:35:54;10.93;;;3.27;;
15876;SDS011;8037;51.666;7.834;2023-02-15T03:38:28;1.73;;;1.63;;
15876;SDS011;8037;51.666;7.834;2023-02-15T03:40:55;5.30;;;3.40;;
15876;SDS011;8037;51.666;7.834;2023-02-15T03:46:34;2.97;;;2.77;;
15876;SDS011;8037;51.666;7.834;2023-02-15T03:49:07;2.90;;;2.70;;
15876;SDS011;8037;51.666;7.834;2023-02-15T03:51:35;2.80;;;2.40;;
15876;SDS011;8037;51.666;7.834;2023-02-15T03:54:07;4.40;;;3.27;;
15876;SDS011;8037;51.666;7.834;2023-02-15T03:56:34;2.27;;;1.57;;
15876;SDS011;8037;51.666;7.834;2023-02-15T03:59:01;5.43;;;3.60;;
15876;SDS011;8037;51.666;7.834;2023-02-15T04:01:55;2.60;;;2.40;;
15876;SDS011;8037;51.666;7.834;2023-02-15T04:04:26;4.63;;;2.20;;
15876;SDS011;8037;51.666;7.834;2023-02-15T04:06:54;2.30;;;2.20;;
15876;SDS011;8037;51.666;7.834;2023-02-15T04:09:20;3.60;;;3.20;;
15876;SDS011;8037;51.666;7.834;2023-02-15T04:12:04;3.00;;;2.80;;
15876;SDS011;8037;51.666;7.834;2023-02-15T04:14:30;3.00;;;2.40;;
15876;SDS011;8037;51.666;7.834;2023-02-15T04:17:15;3.07;;;2.43;;
15876;SDS011;8037;51.666;7.834;2023-02-15T04:19:41;2.35;;;2.15;;
15876;SDS011;8037;51.666;7.834;2023-02-15T04:22:26;2.07;;;1.87;;
15876;SDS011;8037;51.666;7.834;2023-02-15T04:25:10;4.10;;;2.97;;
15876;SDS011;8037;51.666;7.834;2023-02-15T04:27:48;2.40;;;2.30;;
15876;SDS011;8037;51.666;7.834;2023-02-15T04:30:15;3.67;;;3.47;;
15876;SDS011;8037;51.666;7.834;2023-02-15T04:32:43;2.40;;;2.30;;
15876;SDS011;8037;51.666;7.834;2023-02-15T04:35:09;3.63;;;3.27;;
15876;SDS011;8037;51.666;7.834;2023-02-15T04:37:35;4.00;;;2.80;;
15876;SDS011;8037;51.666;7.834;2023-02-15T04:40:01;11.30;;;3.83;;
15876;SDS011;8037;51.666;7.834;2023-02-15T04:42:27;4.37;;;3.70;;
15876;SDS011;8037;51.666;7.834;2023-02-15T04:44:53;3.37;;;3.17;;
15876;SDS011;8037;51.666;7.834;2023-02-15T04:47:19;3.30;;;3.03;;
15876;SDS011;8037;51.666;7.834;2023-02-15T04:49:45;3.90;;;3.60;;
15876;SDS011;8037;51.666;7.834;2023-02-15T04:52:11;3.73;;;3.03;;
15876;SDS011;8037;51.666;7.834;2023-02-15T04:54:38;5.17;;;3.30;;
15876;SDS011;8037;51.666;7.834;2023-02-15T04:57:04;4.13;;;2.77;;
15876;SDS011;8037;51.666;7.834;2023-02-15T04:59:30;2.67;;;2.47;;
15876;SDS011;8037;51.666;7.834;2023-02-15T05:01:56;4.73;;;2.50;;
15876;SDS011;8037;51.666;7.834;2023-02-15T05:04:22;3.23;;;3.00;;
15876;SDS011;8037;51.666;7.834;2023-02-15T05:06:48;5.60;;;2.67;;
15876;SDS011;8037;51.666;7.834;2023-02-15T05:09:14;3.70;;;3.40;;
15876;SDS011;8037;51.666;7.834;2023-02-15T05:11:40;4.03;;;3.07;;
15876;SDS011;8037;51.666;7.834;2023-02-15T05:14:06;4.87;;;2.80;;
15876;SDS011;8037;51.666;7.834;2023-02-15T05:16:32;3.73;;;2.60;;
15876;SDS011;8037;51.666;7.834;2023-02-15T05:18:58;2.93;;;2.73;;
15876;SDS011;8037;51.666;7.834;2023-02-15T05:21:24;3.50;;;2.90;;
15876;SDS011;8037;51.666;7.834;2023-02-15T05:23:50;6.70;;;2.80;;
15876;SDS011;8037;51.666;7.834;2023-02-15T05:26:17;3.97;;;3.57;;
15876;SDS011;8037;51.666;7.834;2023-02-15T05:29:02;3.33;;;3.03;;
15876;SDS011;8037;51.666;7.834;2023-02-15T05:31:28;3.30;;;2.13;;
15876;SDS011;8037;51.666;7.834;2023-02-15T05:33:54;3.70;;;3.30;;
15876;SDS011;8037;51.666;7.834;2023-02-15T05:36:20;4.93;;;3.10;;
15876;SDS011;8037;51.666;7.834;2023-02-15T05:38:46;8.53;;;4.77;;
15876;SDS011;8037;51.666;7.834;2023-02-15T05:41:12;5.73;;;3.17;;
15876;SDS011;8037;51.666;7.834;2023-02-15T05:43:38;5.10;;;2.60;;
15876;SDS011;8037;51.666;7.834;2023-02-15T05:46:04;6.60;;;4.13;;
15876;SDS011;8037;51.666;7.834;2023-02-15T05:48:31;2.27;;;2.00;;
15876;SDS011;8037;51.666;7.834;2023-02-15T05:51:01;6.20;;;2.80;;
15876;SDS011;8037;51.666;7.834;2023-02-15T05:53:28;5.90;;;3.57;;
15876;SDS011;8037;51.666;7.834;2023-02-15T05:55:54;3.17;;;2.93;;
15876;SDS011;8037;51.666;7.834;2023-02-15T05:58:24;4.77;;;3.47;;
15876;SDS011;8037;51.666;7.834;2023-02-15T06:00:50;3.80;;;3.47;;
15876;SDS011;8037;51.666;7.834;2023-02-15T06:03:16;1.93;;;1.83;;
15876;SDS011;8037;51.666;7.834;2023-02-15T06:05:42;6.97;;;4.90;;
15876;SDS011;8037;51.666;7.834;2023-02-15T06:08:08;3.03;;;2.83;;
15876;SDS011;8037;51.666;7.834;2023-02-15T06:10:34;2.70;;;2.50;;
15876;SDS011;8037;51.666;7.834;2023-02-15T06:13:00;2.60;;;2.40;;
15876;SDS011;8037;51.666;7.834;2023-02-15T06:15:26;12.43;;;3.37;;
15876;SDS011;8037;51.666;7.834;2023-02-15T06:17:52;3.63;;;2.93;;
15876;SDS011;8037;51.666;7.834;2023-02-15T06:20:18;4.17;;;3.77;;
15876;SDS011;8037;51.666;7.834;2023-02-15T06:22:44;6.33;;;3.20;;
15876;SDS011;8037;51.666;7.834;2023-02-15T06:25:10;6.17;;;5.07;;
15876;SDS011;8037;51.666;7.834;2023-02-15T06:27:36;3.57;;;3.27;;
15876;SDS011;8037;51.666;7.834;2023-02-15T06:30:04;5.20;;;3.47;;
15876;SDS011;8037;51.666;7.834;2023-02-15T06:32:30;3.50;;;3.23;;
15876;SDS011;8037;51.666;7.834;2023-02-15T06:34:56;3.73;;;3.40;;
15876;SDS011;8037;51.666;7.834;2023-02-15T06:37:22;3.33;;;3.03;;
15876;SDS011;8037;51.666;7.834;2023-02-15T06:39:48;2.07;;;1.93;;
15876;SDS011;8037;51.666;7.834;2023-02-15T06:42:14;3.70;;;2.30;;
15876;SDS011;8037;51.666;7.834;2023-02-15T06:44:40;3.57;;;3.27;;
15876;SDS011;8037;51.666;7.834;2023-02-15T06:47:06;3.70;;;3.37;;
15876;SDS011;8037;51.666;7.834;2023-02-15T06:49:32;1.83;;;1.73;;
15876;SDS011;8037;51.666;7.834;2023-02-15T06:51:57;2.23;;;2.13;;
15876;SDS011;8037;51.666;7.834;2023-02-15T06:54:23;6.47;;;4.27;;
15876;SDS011;8037;51.666;7.834;2023-02-15T06:56:49;5.40;;;3.17;;
15876;SDS011;8037;51.666;7.834;2023-02-15T06:59:15;4.77;;;3.20;;
15876;SDS011;8037;51.666;7.834;2023-02-15T07:01:41;3.97;;;3.63;;
15876;SDS011;8037;51.666;7.834;2023-02-15T07:04:07;6.03;;;5.53;;
15876;SDS011;8037;51.666;7.834;2023-02-15T07:06:33;3.37;;;3.07;;
15876;SDS011;8037;51.666;7.834;2023-02-15T07:09:00;4.00;;;3.40;;
15876;SDS011;8037;51.666;7.834;2023-02-15T07:11:26;3.73;;;2.60;;
15876;SDS011;8037;51.666;7.834;2023-02-15T07:14:10;3.20;;;3.00;;
15876;SDS011;8037;51.666;7.834;2023-02-15T07:16:36;8.47;;;4.47;;
15876;SDS011;8037;51.666;7.834;2023-02-15T07:19:02;3.50;;;3.20;;
15876;SDS011;8037;51.666;7.834;2023-02-15T07:21:28;2.53;;;2.40;;
15876;SDS011;8037;51.666;7.834;2023-02-15T07:23:55;3.53;;;3.20;;
15876;SDS011;8037;51.666;7.834;2023-02-15T07:26:22;8.40;;;4.30;;
15876;SDS011;8037;51.666;7.834;2023-02-15T07:28:48;3.77;;;2.70;;
15876;SDS011;8037;51.666;7.834;2023-02-15T07:31:14;7.13;;;4.60;;
15876;SDS011;8037;51.666;7.834;2023-02-15T07:33:39;4.70;;;2.90;;
15876;SDS011;8037;51.666;7.834;2023-02-15T07:36:06;4.30;;;3.90;;
15876;SDS011;8037;51.666;7.834;2023-02-15T07:38:35;3.50;;;3.20;;
15876;SDS011;8037;51.666;7.834;2023-02-15T07:41:02;5.17;;;3.57;;
15876;SDS011;8037;51.666;7.834;2023-02-15T07:43:29;4.50;;;4.00;;
15876;SDS011;8037;51.666;7.834;2023-02-15T07:46:05;4.27;;;3.17;;
15876;SDS011;8037;51.666;7.834;2023-02-15T07:48:33;5.03;;;4.50;;
15876;SDS011;8037;51.666;7.834;2023-02-15T07:50:59;5.60;;;5.10;;
15876;SDS011;8037;51.666;7.834;2023-02-15T07:53:25;8.93;;;5.20;;
15876;SDS011;8037;51.666;7.834;2023-02-15T07:55:51;6.40;;;4.50;;
15876;SDS011;8037;51.666;7.834;2023-02-15T07:58:18;6.27;;;5.67;;
15876;SDS011;8037;51.666;7.834;2023-02-15T08:00:44;5.80;;;5.23;;
15876;SDS011;8037;51.666;7.834;2023-02-15T08:03:25;8.73;;;4.13;;
15876;SDS011;8037;51.666;7.834;2023-02-15T08:05:58;6.63;;;5.07;;
15876;SDS011;8037;51.666;7.834;2023-02-15T08:08:24;10.03;;;5.93;;
15876;SDS011;8037;51.666;7.834;2023-02-15T08:11:01;7.33;;;5.30;;
15876;SDS011;8037;51.666;7.834;2023-02-15T08:13:46;11.20;;;5.20;;
15876;SDS011;8037;51.666;7.834;2023-02-15T08:16:19;6.33;;;5.10;;
15876;SDS011;8037;51.666;7.834;2023-02-15T08:18:45;5.43;;;4.40;;
15876;SDS011;8037;51.666;7.834;2023-02-15T08:21:11;5.40;;;4.57;;
15876;SDS011;8037;51.666;7.834;2023-02-15T08:23:37;5.53;;;5.03;;
15876;SDS011;8037;51.666;7.834;2023-02-15T08:26:02;9.60;;;6.07;;
15876;SDS011;8037;51.666;7.834;2023-02-15T08:28:29;8.10;;;5.80;;
15876;SDS011;8037;51.666;7.834;2023-02-15T08:30:55;6.73;;;5.77;;
15876;SDS011;8037;51.666;7.834;2023-02-15T08:33:21;5.47;;;4.90;;
15876;SDS011;8037;51.666;7.834;2023-02-15T08:35:47;7.30;;;5.47;;
15876;SDS011;8037;51.666;7.834;2023-02-15T08:38:13;15.70;;;6.20;;
15876;SDS011;8037;51.666;7.834;2023-02-15T08:40:40;7.20;;;5.00;;
15876;SDS011;8037;51.666;7.834;2023-02-15T08:43:06;8.53;;;6.50;;
15876;SDS011;8037;51.666;7.834;2023-02-15T08:45:32;10.30;;;6.03;;
15876;SDS011;8037;51.666;7.834;2023-02-15T08:47:58;12.67;;;6.50;;
15876;SDS011;8037;51.666;7.834;2023-02-15T08:50:24;12.07;;;6.87;;
15876;SDS011;8037;51.666;7.834;2023-02-15T08:52:49;9.10;;;6.70;;
15876;SDS011;8037;51.666;7.834;2023-02-15T08:55:15;6.93;;;6.00;;
15876;SDS011;8037;51.666;7.834;2023-02-15T08:57:41;7.30;;;6.27;;
15876;SDS011;8037;51.666;7.834;2023-02-15T09:00:10;7.10;;;6.07;;
15876;SDS011;8037;51.666;7.834;2023-02-15T09:02:36;15.63;;;7.23;;
15876;SDS011;8037;51.666;7.834;2023-02-15T09:05:02;7.57;;;6.57;;
15876;SDS011;8037;51.666;7.834;2023-02-15T09:07:29;9.17;;;6.83;;
15876;SDS011;8037;51.666;7.834;2023-02-15T09:09:55;7.70;;;6.43;;
15876;SDS011;8037;51.666;7.834;2023-02-15T09:12:21;8.73;;;7.10;;
15876;SDS011;8037;51.666;7.834;2023-02-15T09:14:46;13.83;;;6.80;;
15876;SDS011;8037;51.666;7.834;2023-02-15T09:17:12;8.93;;;5.90;;
15876;SDS011;8037;51.666;7.834;2023-02-15T09:19:38;14.50;;;6.70;;
15876;SDS011;8037;51.666;7.834;2023-02-15T09:22:04;10.70;;;6.87;;
15876;SDS011;8037;51.666;7.834;2023-02-15T09:24:31;14.03;;;6.73;;
15876;SDS011;8037;51.666;7.834;2023-02-15T09:26:58;6.83;;;6.13;;
15876;SDS011;8037;51.666;7.834;2023-02-15T09:29:24;10.10;;;7.30;;
15876;SDS011;8037;51.666;7.834;2023-02-15T09:31:50;9.67;;;6.50;;
15876;SDS011;8037;51.666;7.834;2023-02-15T09:34:19;8.93;;;6.80;;
15876;SDS011;8037;51.666;7.834;2023-02-15T09:36:45;19.73;;;7.40;;
15876;SDS011;8037;51.666;7.834;2023-02-15T09:39:24;9.10;;;7.27;;
15876;SDS011;8037;51.666;7.834;2023-02-15T09:46:56;9.33;;;6.63;;
15876;SDS011;8037;51.666;7.834;2023-02-15T09:49:33;9.67;;;7.20;;
15876;SDS011;8037;51.666;7.834;2023-02-15T09:52:10;14.23;;;7.57;;
15876;SDS011;8037;51.666;7.834;2023-02-15T10:00:00;11.70;;;7.43;;
15876;SDS011;8037;51.666;7.834;2023-02-15T10:10:57;12.53;;;7.10;;
15876;SDS011;8037;51.666;7.834;2023-02-15T10:14:33;10.50;;;7.53;;
15876;SDS011;8037;51.666;7.834;2023-02-15T10:21:39;10.00;;;6.60;;
15876;SDS011;8037;51.666;7.834;2023-02-15T10:26:46;10.00;;;7.43;;
15876;SDS011;8037;51.666;7.834;2023-02-15T10:29:23;16.53;;;8.00;;
15876;SDS011;8037;51.666;7.834;2023-02-15T10:45:10;14.53;;;8.67;;
15876;SDS011;8037;51.666;7.834;2023-02-15T10:50:24;16.00;;;7.47;;
15876;SDS011;8037;51.666;7.834;2023-02-15T10:58:38;19.70;;;7.67;;
15876;SDS011;8037;51.666;7.834;2023-02-15T11:06:30;12.43;;;6.43;;
15876;SDS011;8037;51.666;7.834;2023-02-15T11:09:08;11.70;;;7.00;;
15876;SDS011;8037;51.666;7.834;2023-02-15T11:11:41;13.37;;;7.20;;
15876;SDS011;8037;51.666;7.834;2023-02-15T11:14:17;30.30;;;7.50;;
15876;SDS011;8037;51.666;7.834;2023-02-15T11:16:57;13.83;;;7.27;;
15876;SDS011;8037;51.666;7.834;2023-02-15T11:19:33;8.10;;;7.20;;
15876;SDS011;8037;51.666;7.834;2023-02-15T11:22:02;11.33;;;7.70;;
15876;SDS011;8037;51.666;7.834;2023-02-15T11:24:29;13.83;;;7.70;;
15876;SDS011;8037;51.666;7.834;2023-02-15T11:27:03;11.43;;;7.30;;
15876;SDS011;8037;51.666;7.834;2023-02-15T11:30:04;11.37;;;7.00;;
15876;SDS011;8037;51.666;7.834;2023-02-15T11:32:25;9.90;;;7.00;;
15876;SDS011;8037;51.666;7.834;2023-02-15T11:35:36;12.03;;;6.83;;
15876;SDS011;8037;51.666;7.834;2023-02-15T11:37:51;12.70;;;7.83;;
15876;SDS011;8037;51.666;7.834;2023-02-15T11:40:22;11.90;;;7.70;;
15876;SDS011;8037;51.666;7.834;2023-02-15T11:42:51;10.97;;;7.57;;
15876;SDS011;8037;51.666;7.834;2023-02-15T11:45:29;12.53;;;8.00;;
15876;SDS011;8037;51.666;7.834;2023-02-15T11:47:56;13.87;;;9.60;;
15876;SDS011;8037;51.666;7.834;2023-02-15T11:50:23;27.63;;;9.70;;
15876;SDS011;8037;51.666;7.834;2023-02-15T11:52:50;12.40;;;8.83;;
15876;SDS011;8037;51.666;7.834;2023-02-15T11:55:19;24.30;;;9.00;;
15876;SDS011;8037;51.666;7.834;2023-02-15T11:57:48;17.00;;;8.40;;
15876;SDS011;8037;51.666;7.834;2023-02-15T12:02:52;17.47;;;8.60;;
15876;SDS011;8037;51.666;7.834;2023-02-15T12:05:19;10.10;;;6.70;;
15876;SDS011;8037;51.666;7.834;2023-02-15T12:10:36;10.23;;;8.13;;
15876;SDS011;8037;51.666;7.834;2023-02-15T12:15:35;18.33;;;7.70;;
15876;SDS011;8037;51.666;7.834;2023-02-15T12:18:02;16.07;;;8.70;;
15876;SDS011;8037;51.666;7.834;2023-02-15T12:20:29;12.20;;;8.30;;
15876;SDS011;8037;51.666;7.834;2023-02-15T12:23:00;15.20;;;9.20;;
15876;SDS011;8037;51.666;7.834;2023-02-15T12:25:40;14.93;;;8.23;;
15876;SDS011;8037;51.666;7.834;2023-02-15T12:28:30;13.80;;;8.53;;
15876;SDS011;8037;51.666;7.834;2023-02-15T12:30:57;16.50;;;8.33;;
15876;SDS011;8037;51.666;7.834;2023-02-15T12:33:34;13.30;;;7.33;;
15876;SDS011;8037;51.666;7.834;2023-02-15T12:36:08;13.63;;;7.37;;
15876;SDS011;8037;51.666;7.834;2023-02-15T12:38:35;29.83;;;7.80;;
15876;SDS011;8037;51.666;7.834;2023-02-15T12:41:02;15.90;;;8.97;;
15876;SDS011;8037;51.666;7.834;2023-02-15T12:43:32;17.20;;;8.10;;
15876;SDS011;8037;51.666;7.834;2023-02-15T12:51:43;19.57;;;11.60;;
15876;SDS011;8037;51.666;7.834;2023-02-15T12:54:42;66.40;;;27.70;;
15876;SDS011;8037;51.666;7.834;2023-02-15T12:57:13;86.63;;;43.10;;
15876;SDS011;8037;51.666;7.834;2023-02-15T12:59:52;68.03;;;35.47;;
15876;SDS011;8037;51.666;7.834;2023-02-15T13:02:21;38.97;;;21.57;;
15876;SDS011;8037;51.666;7.834;2023-02-15T13:04:51;17.17;;;9.83;;
15876;SDS011;8037;51.666;7.834;2023-02-15T13:07:18;11.27;;;7.20;;
15876;SDS011;8037;51.666;7.834;2023-02-15T13:09:45;12.67;;;6.27;;
15876;SDS011;8037;51.666;7.834;2023-02-15T13:12:16;21.83;;;8.30;;
15876;SDS011;8037;51.666;7.834;2023-02-15T13:14:44;17.97;;;7.80;;
15876;SDS011;8037;51.666;7.834;2023-02-15T13:17:10;22.70;;;7.47;;
15876;SDS011;8037;51.666;7.834;2023-02-15T13:19:41;10.50;;;6.80;;
15876;SDS011;8037;51.666;7.834;2023-02-15T13:22:14;12.53;;;7.30;;
15876;SDS011;8037;51.666;7.834;2023-02-15T13:24:48;9.10;;;6.43;;
15876;SDS011;8037;51.666;7.834;2023-02-15T13:27:18;12.93;;;7.40;;
15876;SDS011;8037;51.666;7.834;2023-02-15T13:29:49;16.00;;;7.10;;
15876;SDS011;8037;51.666;7.834;2023-02-15T13:34:49;18.30;;;7.50;;
15876;SDS011;8037;51.666;7.834;2023-02-15T13:37:16;10.53;;;6.80;;
15876;SDS011;8037;51.666;7.834;2023-02-15T13:39:46;17.40;;;7.80;;
15876;SDS011;8037;51.666;7.834;2023-02-15T13:44:58;12.33;;;7.30;;
15876;SDS011;8037;51.666;7.834;2023-02-15T13:47:34;17.07;;;7.17;;
15876;SDS011;8037;51.666;7.834;2023-02-15T13:50:27;10.90;;;6.50;;
15876;SDS011;8037;51.666;7.834;2023-02-15T13:55:44;18.00;;;8.60;;
15876;SDS011;8037;51.666;7.834;2023-02-15T14:01:26;11.70;;;6.63;;
15876;SDS011;8037;51.666;7.834;2023-02-15T14:06:40;10.47;;;5.93;;
15876;SDS011;8037;51.666;7.834;2023-02-15T14:11:50;13.53;;;5.67;;
15876;SDS011;8037;51.666;7.834;2023-02-15T14:16:57;15.37;;;6.90;;
15876;SDS011;8037;51.666;7.834;2023-02-15T14:21:58;16.60;;;6.17;;
15876;SDS011;8037;51.666;7.834;2023-02-15T14:24:29;10.40;;;6.23;;
15876;SDS011;8037;51.666;7.834;2023-02-15T14:27:02;9.93;;;6.17;;
15876;SDS011;8037;51.666;7.834;2023-02-15T14:29:41;8.20;;;6.47;;
15876;SDS011;8037;51.666;7.834;2023-02-15T14:32:11;8.70;;;5.70;;
15876;SDS011;8037;51.666;7.834;2023-02-15T14:34:52;10.03;;;6.20;;
15876;SDS011;8037;51.666;7.834;2023-02-15T14:37:21;21.97;;;6.17;;
15876;SDS011;8037;51.666;7.834;2023-02-15T14:39:52;10.10;;;5.40;;
15876;SDS011;8037;51.666;7.834;2023-02-15T14:43:01;10.77;;;6.03;;
15876;SDS011;8037;51.666;7.834;2023-02-15T14:45:41;15.90;;;6.30;;
15876;SDS011;8037;51.666;7.834;2023-02-15T14:50:41;15.83;;;7.03;;
15876;SDS011;8037;51.666;7.834;2023-02-15T14:55:42;12.60;;;6.03;;
15876;SDS011;8037;51.666;7.834;2023-02-15T14:58:11;18.37;;;7.23;;
15876;SDS011;8037;51.666;7.834;2023-02-15T15:00:38;11.50;;;6.30;;
15876;SDS011;8037;51.666;7.834;2023-02-15T15:03:12;14.70;;;7.30;;
15876;SDS011;8037;51.666;7.834;2023-02-15T15:06:03;17.83;;;7.43;;
15876;SDS011;8037;51.666;7.834;2023-02-15T15:08:34;10.17;;;5.30;;
15876;SDS011;8037;51.666;7.834;2023-02-15T15:13:58;10.93;;;5.37;;
15876;SDS011;8037;51.666;7.834;2023-02-15T15:16:29;11.43;;;6.27;;
15876;SDS011;8037;51.666;7.834;2023-02-15T15:18:56;12.43;;;6.67;;
15876;SDS011;8037;51.666;7.834;2023-02-15T15:24:07;26.77;;;6.33;;
15876;SDS011;8037;51.666;7.834;2023-02-15T15:26:34;19.03;;;6.70;;
15876;SDS011;8037;51.666;7.834;2023-02-15T15:29:02;12.60;;;7.27;;
15876;SDS011;8037;51.666;7.834;2023-02-15T15:47:32;13.10;;;6.00;;
15876;SDS011;8037;51.666;7.834;2023-02-15T15:50:00;10.20;;;6.83;;
15876;SDS011;8037;51.666;7.834;2023-02-15T15:52:26;14.80;;;7.83;;
15876;SDS011;8037;51.666;7.834;2023-02-15T15:54:57;8.90;;;6.20;;
15876;SDS011;8037;51.666;7.834;2023-02-15T15:59:53;11.53;;;6.60;;
15876;SDS011;8037;51.666;7.834;2023-02-15T16:02:20;21.43;;;7.40;;
15876;SDS011;8037;51.666;7.834;2023-02-15T16:04:48;10.87;;;6.27;;
15876;SDS011;8037;51.666;7.834;2023-02-15T16:09:40;11.23;;;6.93;;
15876;SDS011;8037;51.666;7.834;2023-02-15T16:12:10;10.73;;;6.03;;
15876;SDS011;8037;51.666;7.834;2023-02-15T16:14:40;12.20;;;6.30;;
15876;SDS011;8037;51.666;7.834;2023-02-15T16:17:13;11.23;;;7.57;;
15876;SDS011;8037;51.666;7.834;2023-02-15T16:19:40;15.43;;;7.60;;
15876;SDS011;8037;51.666;7.834;2023-02-15T16:22:14;13.50;;;7.37;;
15876;SDS011;8037;51.666;7.834;2023-02-15T16:27:33;13.77;;;8.23;;
15876;SDS011;8037;51.666;7.834;2023-02-15T16:30:16;10.43;;;7.60;;
15876;SDS011;8037;51.666;7.834;2023-02-15T16:32:42;12.83;;;9.30;;
15876;SDS011;8037;51.666;7.834;2023-02-15T16:35:14;10.07;;;7.90;;
15876;SDS011;8037;51.666;7.834;2023-02-15T16:37:41;12.00;;;8.30;;
15876;SDS011;8037;51.666;7.834;2023-02-15T16:40:13;11.40;;;7.90;;
15876;SDS011;8037;51.666;7.834;2023-02-15T16:42:57;13.60;;;7.43;;
15876;SDS011;8037;51.666;7.834;2023-02-15T16:45:26;13.23;;;8.07;;
15876;SDS011;8037;51.666;7.834;2023-02-15T16:47:53;17.30;;;9.10;;
15876;SDS011;8037;51.666;7.834;2023-02-15T16:50:27;15.00;;;8.37;;
15876;SDS011;8037;51.666;7.834;2023-02-15T16:52:54;13.77;;;8.63;;
15876;SDS011;8037;51.666;7.834;2023-02-15T16:55:23;11.07;;;8.70;;
15876;SDS011;8037;51.666;7.834;2023-02-15T16:57:49;11.80;;;8.00;;
15876;SDS011;8037;51.666;7.834;2023-02-15T17:00:20;19.20;;;9.57;;
15876;SDS011;8037;51.666;7.834;2023-02-15T17:03:22;12.20;;;8.47;;
15876;SDS011;8037;51.666;7.834;2023-02-15T17:13:16;15.40;;;9.07;;
15876;SDS011;8037;51.666;7.834;2023-02-15T17:15:43;15.23;;;9.57;;
15876;SDS011;8037;51.666;7.834;2023-02-15T17:18:16;17.03;;;8.37;;
15876;SDS011;8037;51.666;7.834;2023-02-15T17:20:44;19.77;;;9.77;;
15876;SDS011;8037;51.666;7.834;2023-02-15T17:23:26;13.13;;;8.53;;
15876;SDS011;8037;51.666;7.834;2023-02-15T17:25:54;12.53;;;9.20;;
15876;SDS011;8037;51.666;7.834;2023-02-15T17:28:21;16.30;;;9.60;;
15876;SDS011;8037;51.666;7.834;2023-02-15T17:30:48;19.23;;;11.43;;
15876;SDS011;8037;51.666;7.834;2023-02-15T17:33:26;35.13;;;17.70;;
15876;SDS011;8037;51.666;7.834;2023-02-15T17:36:03;24.53;;;12.20;;
15876;SDS011;8037;51.666;7.834;2023-02-15T17:38:30;28.27;;;12.43;;
15876;SDS011;8037;51.666;7.834;2023-02-15T17:40:57;30.27;;;17.27;;